Volcan De Tamasite — ECFE — position and weather

sailwx.info

Track history (hours):
 
Tides and Currents Weather Stations Pressure Air Temp Water Temp Dewpoint Dewpoint Depression Visibility Wind Speed Wind Dir Waves Ship Positions

Volcan De Tamasite

Last reported at 2017-Apr-22 21:05 UTC. Time now 2017-Apr-27 15:01 UTC.
Position N 28°09' W 015°25'.

Length 141 m; draft 5.5 m.

Type: Passenger vessel. MMSI: 224093000.

Date/timePositionNaut miles runAvg speedWind from/ knotsBaromVisibWave heightAir tempDewpointWater temp
2017-Apr-22 21:05N 28°09' W 015°25'0 0.8
2017-Apr-22 20:59N 28°09' W 015°25'1 1.0
2017-Apr-22 20:24N 28°08' W 015°25'0 0.0
2017-Apr-22 19:57N 28°08' W 015°25'0 0.0
2017-Apr-22 19:27N 28°08' W 015°25'0 0.0
2017-Apr-22 18:57N 28°08' W 015°25'0 0.0
2017-Apr-22 18:30N 28°08' W 015°25'0 0.0
2017-Apr-22 18:00N 28°08' W 015°25'0 0.0
2017-Apr-22 17:30N 28°08' W 015°25'0 0.0
2017-Apr-22 17:00N 28°08' W 015°25'0 0.0
2017-Apr-22 16:30N 28°08' W 015°25'0 0.0
2017-Apr-22 16:00N 28°08' W 015°25'0 0.0
2017-Apr-22 15:31N 28°08' W 015°25'0 0.0
2017-Apr-22 15:01N 28°08' W 015°25'0 0.0
2017-Apr-22 14:30N 28°08' W 015°25'0 0.0
2017-Apr-22 13:31N 28°08' W 015°25'0 0.0
2017-Apr-22 13:00N 28°08' W 015°25'0 0.0
2017-Apr-22 12:31N 28°08' W 015°25'0 0.0
2017-Apr-22 12:01N 28°08' W 015°25'0 0.0
2017-Apr-22 11:30N 28°08' W 015°25'0 0.0
2017-Apr-22 11:00N 28°08' W 015°25'0 0.0
2017-Apr-22 10:30N 28°08' W 015°25'0 0.0
2017-Apr-22 10:01N 28°08' W 015°25'0 0.0
2017-Apr-22 09:30N 28°08' W 015°25'0 0.0
2017-Apr-22 09:00N 28°08' W 015°25'0 0.0
2017-Apr-22 08:30N 28°08' W 015°25'0 0.0
2017-Apr-22 08:00N 28°08' W 015°25'0 0.0
2017-Apr-22 07:30N 28°08' W 015°25'0 0.0
2017-Apr-22 07:00N 28°08' W 015°25'0 0.0
2017-Apr-22 06:30N 28°08' W 015°25'0 0.0
2017-Apr-22 06:00N 28°08' W 015°25'0 0.0
2017-Apr-22 05:30N 28°08' W 015°25'0 0.0
2017-Apr-22 05:00N 28°08' W 015°25'0 0.0
2017-Apr-22 04:30N 28°08' W 015°25'0 0.0
2017-Apr-22 04:00N 28°08' W 015°25'0 0.0
2017-Apr-22 03:30N 28°08' W 015°25'0 0.0
2017-Apr-22 03:00N 28°08' W 015°25'0 0.0
2017-Apr-22 02:30N 28°08' W 015°25'0 0.4
2017-Apr-22 02:00N 28°08' W 015°25'1 1.3
2017-Apr-22 01:31N 28°09' W 015°25'1 2.5
2017-Apr-22 01:01N 28°08' W 015°25'2 3.7
2017-Apr-22 00:31N 28°10' W 015°24'0 0.2
2017-Apr-22 00:01N 28°10' W 015°24'0 0.0
2017-Apr-21 23:30N 28°10' W 015°24'0 0.0
2017-Apr-21 23:00N 28°10' W 015°24'0 0.0
2017-Apr-21 22:30N 28°10' W 015°24'0 0.0
2017-Apr-21 22:00N 28°10' W 015°24'0 0.0
2017-Apr-21 21:31N 28°10' W 015°24'0 0.0
2017-Apr-21 21:00N 28°10' W 015°24'0 0.0
2017-Apr-21 20:30N 28°10' W 015°24'1 1.5
2017-Apr-21 20:01N 28°09' W 015°23'0 0.8
2017-Apr-21 19:30N 28°09' W 015°24'0 0.7
2017-Apr-21 19:00N 28°10' W 015°24'0 0.0
2017-Apr-21 18:30N 28°10' W 015°24'0 0.1
2017-Apr-21 18:00N 28°10' W 015°24'713.3
2017-Apr-21 17:30N 28°08' W 015°17'1020.2
2017-Apr-21 17:00N 28°06' W 015°05'1020.1
2017-Apr-21 16:30N 28°05' W 014°54'1020.4
2017-Apr-21 16:00N 28°03' W 014°43'1020.2
2017-Apr-21 15:30N 28°02' W 014°31'917.0
2017-Apr-21 15:00N 28°03' W 014°22'0 0.0
2017-Apr-21 14:30N 28°03' W 014°22'0 0.0
2017-Apr-21 13:06N 28°03' W 014°22'0 0.3
2017-Apr-21 12:55N 28°03' W 014°22'814.8
2017-Apr-21 12:23N 28°02' W 014°31'820.3
2017-Apr-21 12:00N 28°03' W 014°39'1020.0
2017-Apr-21 11:31N 28°04' W 014°50'1020.0
2017-Apr-21 11:00N 28°06' W 015°02'1020.0
2017-Apr-21 10:31N 28°07' W 015°13'1019.7
2017-Apr-21 10:00N 28°09' W 015°24'1 1.2
2017-Apr-21 09:30N 28°10' W 015°24'2 3.2
2017-Apr-21 09:00N 28°11' W 015°23'1020.4
2017-Apr-21 08:30N 28°15' W 015°34'1020.4
2017-Apr-21 08:00N 28°19' W 015°45'1020.4
2017-Apr-21 07:30N 28°23' W 015°56'1020.2
2017-Apr-21 07:00N 28°27' W 016°06'814.5
2017-Apr-21 06:29N 28°28' W 016°15'0 0.0
2017-Apr-21 05:59N 28°28' W 016°15'0 0.0
2017-Apr-21 02:25N 28°28' W 016°15'0 0.0
2017-Apr-21 00:36N 28°28' W 016°15'0 0.0
2017-Apr-21 00:30N 28°28' W 016°15'0 0.0
2017-Apr-20 22:28N 28°28' W 016°15'2 3.6
2017-Apr-20 21:59N 28°28' W 016°13'919.8
2017-Apr-20 21:30N 28°25' W 016°03'1020.0
2017-Apr-20 21:00N 28°21' W 015°52'1020.0
2017-Apr-20 20:30N 28°18' W 015°42'1020.1
2017-Apr-20 20:00N 28°14' W 015°31'816.3
2017-Apr-20 19:30N 28°09' W 015°24'1 1.3
2017-Apr-20 19:00N 28°10' W 015°24'0 0.0
2017-Apr-20 18:30N 28°10' W 015°24'0 0.0
2017-Apr-20 18:00N 28°10' W 015°24'3 6.8
2017-Apr-20 17:30N 28°12' W 015°26'1020.5
2017-Apr-20 17:00N 28°16' W 015°37'1020.1
2017-Apr-20 16:30N 28°20' W 015°47'1019.9
2017-Apr-20 16:00N 28°24' W 015°58'1019.9
2017-Apr-20 15:29N 28°27' W 016°09'5 3.1
2017-Apr-20 13:50N 28°28' W 016°15'4 8.7
2017-Apr-20 13:26N 28°28' W 016°11'1520.9
2017-Apr-20 12:42N 28°22' W 015°55'520.7
2017-Apr-20 12:28N 28°20' W 015°50'919.4
2017-Apr-20 12:00N 28°17' W 015°40'1020.0
2017-Apr-20 11:30N 28°13' W 015°29'612.4
2017-Apr-20 11:00N 28°09' W 015°24'0 0.4
2017-Apr-20 10:31N 28°10' W 015°24'0 0.0
2017-Apr-20 10:01N 28°10' W 015°24'0 0.0
2017-Apr-20 09:30N 28°10' W 015°24'2 3.8
2017-Apr-20 09:00N 28°11' W 015°24'1020.6
2017-Apr-20 08:30N 28°16' W 015°34'1019.9
2017-Apr-20 08:00N 28°19' W 015°45'1020.0
2017-Apr-20 07:30N 28°23' W 015°56'1019.9
2017-Apr-20 07:00N 28°26' W 016°06'815.5
2017-Apr-20 06:30N 28°28' W 016°15'0 0.1
2017-Apr-20 05:52N 28°28' W 016°15'0 0.0
2017-Apr-20 05:30N 28°28' W 016°15'0 0.0
2017-Apr-20 04:58N 28°28' W 016°15'0 0.0
2017-Apr-20 04:20N 28°28' W 016°15'0 0.0
2017-Apr-20 03:56N 28°28' W 016°15'0 0.0
2017-Apr-20 03:28N 28°28' W 016°15'0 0.0
2017-Apr-20 02:57N 28°28' W 016°15'0 0.0
2017-Apr-20 02:29N 28°28' W 016°15'0 0.0
2017-Apr-20 01:59N 28°28' W 016°15'0 0.0
2017-Apr-20 01:28N 28°28' W 016°15'0 0.0
2017-Apr-20 00:55N 28°28' W 016°15'0 0.0
2017-Apr-20 00:22N 28°28' W 016°15'0 0.0
2017-Apr-20 00:00N 28°28' W 016°15'0 0.0
2017-Apr-19 23:27N 28°28' W 016°15'0 0.0
2017-Apr-19 23:00N 28°28' W 016°15'0 0.0
2017-Apr-19 22:21N 28°28' W 016°15'2 3.9
2017-Apr-19 21:48N 28°28' W 016°12'619.9
2017-Apr-19 21:30N 28°26' W 016°06'1119.2
2017-Apr-19 20:55N 28°22' W 015°54'819.7
2017-Apr-19 20:30N 28°19' W 015°45'1019.8
2017-Apr-19 20:00N 28°15' W 015°35'1019.5
2017-Apr-19 19:30N 28°12' W 015°25'2 4.6
2017-Apr-19 19:00N 28°10' W 015°24'0 0.0
2017-Apr-19 18:30N 28°10' W 015°24'0 0.0
2017-Apr-19 18:00N 28°10' W 015°24'713.5
2017-Apr-19 17:30N 28°08' W 015°17'1020.3
2017-Apr-19 17:00N 28°06' W 015°05'1020.3
2017-Apr-19 16:30N 28°05' W 014°54'1020.0
2017-Apr-19 16:00N 28°03' W 014°43'1020.1
2017-Apr-19 15:30N 28°02' W 014°31'916.7
2017-Apr-19 14:59N 28°03' W 014°22'0 0.0
2017-Apr-19 14:30N 28°03' W 014°22'0 0.0
2017-Apr-19 13:22N 28°03' W 014°22'0 0.0
2017-Apr-19 13:00N 28°03' W 014°22'0 0.0
2017-Apr-19 12:28N 28°03' W 014°22'0 0.0
2017-Apr-19 11:59N 28°03' W 014°22'0 0.0
2017-Apr-19 11:30N 28°03' W 014°22'0 0.0
2017-Apr-19 11:00N 28°03' W 014°22'0 0.0
2017-Apr-19 10:29N 28°03' W 014°22'8 8.7
2017-Apr-19 09:34N 28°02' W 014°31'120.4
2017-Apr-19 09:30N 28°02' W 014°32'1020.5
2017-Apr-19 09:01N 28°03' W 014°44'1020.2
2017-Apr-19 08:31N 28°04' W 014°55'1020.2
2017-Apr-19 08:00N 28°06' W 015°06'1020.3
2017-Apr-19 07:30N 28°07' W 015°18'613.0
2017-Apr-19 07:00N 28°08' W 015°25'0 0.0
2017-Apr-19 06:30N 28°08' W 015°25'0 0.0
2017-Apr-19 06:00N 28°08' W 015°25'0 0.0
2017-Apr-19 05:30N 28°08' W 015°25'0 0.0
2017-Apr-19 05:00N 28°08' W 015°25'0 0.0
2017-Apr-19 04:30N 28°08' W 015°25'0 0.0
2017-Apr-19 04:00N 28°08' W 015°25'0 0.0
2017-Apr-19 03:30N 28°08' W 015°25'0 0.0
2017-Apr-19 03:01N 28°08' W 015°25'0 0.0
2017-Apr-19 02:30N 28°08' W 015°25'0 0.0
2017-Apr-19 02:00N 28°08' W 015°25'0 0.0
2017-Apr-19 01:30N 28°08' W 015°25'0 0.0
2017-Apr-19 01:00N 28°08' W 015°25'0 0.0
2017-Apr-19 00:31N 28°08' W 015°25'0 0.0
2017-Apr-19 00:01N 28°08' W 015°25'0 0.0
2017-Apr-18 23:31N 28°08' W 015°25'0 0.0
2017-Apr-18 23:00N 28°08' W 015°25'0 0.0
2017-Apr-18 22:31N 28°08' W 015°25'0 0.0
2017-Apr-18 22:00N 28°08' W 015°25'0 0.0
2017-Apr-18 21:31N 28°08' W 015°25'0 0.0
2017-Apr-18 21:01N 28°08' W 015°25'0 0.0
2017-Apr-18 20:30N 28°08' W 015°25'0 0.0
2017-Apr-18 20:00N 28°08' W 015°25'0 0.0
2017-Apr-18 19:30N 28°08' W 015°25'0 0.0
2017-Apr-18 19:00N 28°08' W 015°25'0 0.0
2017-Apr-18 18:30N 28°08' W 015°25'1 2.4
2017-Apr-18 18:00N 28°07' W 015°24'1019.1
2017-Apr-18 17:30N 28°06' W 015°14'1020.5
2017-Apr-18 17:00N 28°05' W 015°02'918.4
2017-Apr-18 16:30N 28°04' W 014°52'917.8
2017-Apr-18 16:00N 28°03' W 014°42'1019.4
2017-Apr-18 15:30N 28°02' W 014°31'816.1
2017-Apr-18 15:00N 28°03' W 014°22'0 0.0
2017-Apr-18 14:30N 28°03' W 014°22'0 0.0
2017-Apr-18 13:30N 28°03' W 014°22'0 0.0
2017-Apr-18 13:00N 28°03' W 014°22'0 0.0
2017-Apr-18 12:30N 28°03' W 014°22'0 0.0
2017-Apr-18 12:00N 28°03' W 014°22'0 0.0
2017-Apr-18 11:30N 28°03' W 014°22'0 0.0
2017-Apr-18 11:00N 28°03' W 014°22'0 0.0
2017-Apr-18 10:30N 28°03' W 014°22'1 2.9
2017-Apr-18 10:00N 28°02' W 014°23'1020.8
2017-Apr-18 09:30N 28°02' W 014°35'1020.5
2017-Apr-18 09:01N 28°03' W 014°47'1020.3
2017-Apr-18 08:30N 28°04' W 014°58'1020.2
2017-Apr-18 08:00N 28°05' W 015°09'1020.6
2017-Apr-18 07:31N 28°06' W 015°21'4 8.3
2017-Apr-18 07:00N 28°08' W 015°25'0 0.0
2017-Apr-18 06:30N 28°08' W 015°25'0 0.0
2017-Apr-18 06:00N 28°08' W 015°25'0 0.0
2017-Apr-18 05:30N 28°08' W 015°25'0 0.0
2017-Apr-18 05:00N 28°08' W 015°25'0 0.0
2017-Apr-18 04:30N 28°08' W 015°25'0 0.0
2017-Apr-18 04:00N 28°08' W 015°25'0 0.0
2017-Apr-18 03:30N 28°08' W 015°25'0 0.0
2017-Apr-18 03:00N 28°08' W 015°25'0 0.0
2017-Apr-18 02:30N 28°08' W 015°25'0 0.0
2017-Apr-18 02:00N 28°08' W 015°25'0 0.0
2017-Apr-18 01:30N 28°08' W 015°25'0 0.0
2017-Apr-18 01:00N 28°08' W 015°25'0 0.0
2017-Apr-18 00:30N 28°08' W 015°25'0 0.0
2017-Apr-18 00:00N 28°08' W 015°25'0 0.0
2017-Apr-17 23:30N 28°08' W 015°25'0 0.0
2017-Apr-17 23:00N 28°08' W 015°25'0 0.0
2017-Apr-17 22:30N 28°08' W 015°25'0 0.0
2017-Apr-17 22:00N 28°08' W 015°25'0 0.0
2017-Apr-17 21:30N 28°08' W 015°25'0 0.0
2017-Apr-17 21:00N 28°08' W 015°25'0 0.0
2017-Apr-17 20:30N 28°08' W 015°25'0 0.0
2017-Apr-17 20:00N 28°08' W 015°25'0 0.0
2017-Apr-17 19:30N 28°08' W 015°25'0 0.0
2017-Apr-17 19:00N 28°08' W 015°25'0 0.0
2017-Apr-17 18:30N 28°08' W 015°25'2 3.6
2017-Apr-17 18:00N 28°07' W 015°24'1019.8
2017-Apr-17 17:30N 28°06' W 015°12'1019.6
2017-Apr-17 17:00N 28°05' W 015°01'1020.1
2017-Apr-17 16:31N 28°04' W 014°50'1020.1
2017-Apr-17 16:01N 28°03' W 014°39'1020.4
2017-Apr-17 15:31N 28°02' W 014°27'5 9.5
2017-Apr-17 15:00N 28°03' W 014°22'0 0.0
2017-Apr-17 14:30N 28°03' W 014°22'0 0.0
2017-Apr-17 13:30N 28°03' W 014°22'0 0.0
2017-Apr-17 13:00N 28°03' W 014°22'0 0.0
2017-Apr-17 12:30N 28°03' W 014°22'0 0.0
2017-Apr-17 12:00N 28°03' W 014°22'0 0.0
2017-Apr-17 10:57N 28°03' W 014°22'0 0.0
2017-Apr-17 10:30N 28°03' W 014°22'0 0.3
2017-Apr-17 09:59N 28°03' W 014°22'918.7
2017-Apr-17 09:30N 28°02' W 014°32'1020.7
2017-Apr-17 09:00N 28°03' W 014°44'1020.2
2017-Apr-17 08:30N 28°04' W 014°55'1020.3
2017-Apr-17 08:00N 28°05' W 015°07'1020.5
2017-Apr-17 07:30N 28°06' W 015°18'612.6
2017-Apr-17 07:00N 28°08' W 015°25'0 0.0
2017-Apr-17 06:30N 28°08' W 015°25'0 0.0
2017-Apr-17 06:01N 28°08' W 015°25'0 0.0
2017-Apr-17 05:30N 28°08' W 015°25'0 0.0
2017-Apr-17 05:00N 28°08' W 015°25'0 0.0
2017-Apr-17 04:30N 28°08' W 015°25'0 0.0
2017-Apr-17 04:00N 28°08' W 015°25'0 0.0
2017-Apr-17 03:30N 28°08' W 015°25'0 0.0
2017-Apr-17 03:00N 28°08' W 015°25'0 0.0
2017-Apr-17 02:30N 28°08' W 015°25'0 0.0
2017-Apr-17 02:00N 28°08' W 015°25'0 0.0
2017-Apr-17 01:30N 28°08' W 015°25'0 0.0
2017-Apr-17 01:00N 28°08' W 015°25'0 0.0
2017-Apr-17 00:30N 28°08' W 015°25'0 0.0
2017-Apr-17 00:00N 28°08' W 015°25'0 0.0
2017-Apr-16 23:30N 28°08' W 015°25'0 0.0
2017-Apr-16 23:00N 28°08' W 015°25'0 0.0
2017-Apr-16 22:30N 28°08' W 015°25'0 0.0
2017-Apr-16 22:00N 28°08' W 015°25'0 0.3
2017-Apr-16 21:30N 28°08' W 015°25'611.8
2017-Apr-16 21:01N 28°06' W 015°19'1020.3
2017-Apr-16 20:30N 28°05' W 015°07'1019.6
2017-Apr-16 20:00N 28°04' W 014°56'1019.7
2017-Apr-16 19:30N 28°03' W 014°45'1019.9
2017-Apr-16 19:00N 28°02' W 014°34'1020.1
2017-Apr-16 18:30N 28°03' W 014°22'1 1.1
2017-Apr-16 18:00N 28°03' W 014°22'0 0.0
2017-Apr-16 17:30N 28°03' W 014°22'1 1.8
2017-Apr-16 17:00N 28°02' W 014°23'1020.5
2017-Apr-16 16:30N 28°02' W 014°34'1020.5
2017-Apr-16 16:00N 28°03' W 014°46'1020.3
2017-Apr-16 15:30N 28°04' W 014°57'1020.3
2017-Apr-16 15:00N 28°05' W 015°09'1514.6
2017-Apr-16 14:00N 28°08' W 015°25'0 0.0
2017-Apr-16 13:30N 28°08' W 015°25'1 2.1
2017-Apr-16 13:01N 28°07' W 015°24'1019.2
2017-Apr-16 12:30N 28°06' W 015°14'1020.3
2017-Apr-16 12:00N 28°05' W 015°02'1020.8
2017-Apr-16 11:30N 28°04' W 014°50'1020.5
2017-Apr-16 11:00N 28°03' W 014°39'1020.1
2017-Apr-16 10:30N 28°02' W 014°27'5 9.9
2017-Apr-16 10:00N 28°03' W 014°22'0 0.0
2017-Apr-16 09:30N 28°03' W 014°22'0 0.0
2017-Apr-16 09:00N 28°03' W 014°22'0 0.4
2017-Apr-16 08:30N 28°03' W 014°22'917.5
2017-Apr-16 08:00N 28°02' W 014°32'1020.8
2017-Apr-16 07:30N 28°03' W 014°44'1020.7
2017-Apr-16 07:00N 28°04' W 014°55'1020.3
2017-Apr-16 06:30N 28°05' W 015°07'1020.5
2017-Apr-16 06:00N 28°06' W 015°18'612.3
2017-Apr-16 05:30N 28°08' W 015°25'0 0.0
2017-Apr-16 05:00N 28°08' W 015°25'0 0.0
2017-Apr-16 04:30N 28°08' W 015°25'0 0.0
2017-Apr-16 04:00N 28°08' W 015°25'0 0.0
2017-Apr-16 03:30N 28°08' W 015°25'0 0.0
2017-Apr-16 03:00N 28°08' W 015°25'0 0.0
2017-Apr-16 02:30N 28°08' W 015°25'0 0.0
2017-Apr-16 02:00N 28°08' W 015°25'0 0.0
2017-Apr-16 01:30N 28°08' W 015°25'0 0.0
2017-Apr-16 01:00N 28°08' W 015°25'0 0.0
2017-Apr-16 00:30N 28°08' W 015°25'0 0.0
2017-Apr-16 00:00N 28°08' W 015°25'0 0.0
2017-Apr-15 23:30N 28°08' W 015°25'0 0.0
2017-Apr-15 23:00N 28°08' W 015°25'0 0.0
2017-Apr-15 22:30N 28°08' W 015°25'0 0.0
2017-Apr-15 22:00N 28°08' W 015°25'0 0.0
2017-Apr-15 21:30N 28°08' W 015°25'0 0.0
2017-Apr-15 21:00N 28°08' W 015°25'0 0.0
2017-Apr-15 20:30N 28°08' W 015°25'0 0.0
2017-Apr-15 20:00N 28°08' W 015°25'0 0.0
2017-Apr-15 19:30N 28°08' W 015°25'0 0.0
2017-Apr-15 19:00N 28°08' W 015°25'0 0.0
2017-Apr-15 18:30N 28°08' W 015°25'0 0.4
2017-Apr-15 18:00N 28°08' W 015°25'612.9
2017-Apr-15 17:30N 28°06' W 015°18'1020.1
2017-Apr-15 17:00N 28°06' W 015°06'1020.5
2017-Apr-15 16:30N 28°05' W 014°55'1020.3
2017-Apr-15 16:00N 28°03' W 014°43'1020.7
2017-Apr-15 15:30N 28°02' W 014°32'917.7
2017-Apr-15 15:00N 28°03' W 014°22'0 0.0
2017-Apr-15 14:31N 28°03' W 014°22'0 0.0
2017-Apr-15 13:31N 28°03' W 014°22'0 0.0
2017-Apr-15 13:01N 28°03' W 014°22'611.7
2017-Apr-15 12:29N 28°02' W 014°29'919.6
2017-Apr-15 12:00N 28°03' W 014°39'1020.1
2017-Apr-15 11:30N 28°04' W 014°50'1020.2
2017-Apr-15 11:00N 28°06' W 015°02'1020.2
2017-Apr-15 10:30N 28°07' W 015°13'1019.6
2017-Apr-15 10:00N 28°09' W 015°24'1 1.1
2017-Apr-15 09:30N 28°10' W 015°24'3 6.9
2017-Apr-15 09:00N 28°12' W 015°26'1019.7
2017-Apr-15 08:30N 28°16' W 015°36'1019.9
2017-Apr-15 08:00N 28°20' W 015°47'1019.7
2017-Apr-15 07:30N 28°23' W 015°57'1020.2
2017-Apr-15 07:00N 28°27' W 016°08'611.8
2017-Apr-15 06:30N 28°28' W 016°15'0 0.0
2017-Apr-15 06:00N 28°28' W 016°15'0 0.0
2017-Apr-15 05:30N 28°28' W 016°15'0 0.0
2017-Apr-15 05:00N 28°28' W 016°15'0 0.0
2017-Apr-15 04:30N 28°28' W 016°15'0 0.0
2017-Apr-15 04:00N 28°28' W 016°15'0 0.0
2017-Apr-15 03:24N 28°28' W 016°15'0 0.0
2017-Apr-15 03:00N 28°28' W 016°15'0 0.0
2017-Apr-15 02:28N 28°28' W 016°15'0 0.0
2017-Apr-15 02:00N 28°28' W 016°15'0 0.0
2017-Apr-15 01:31N 28°28' W 016°15'0 0.0
2017-Apr-15 01:00N 28°28' W 016°15'0 0.0
2017-Apr-15 00:30N 28°28' W 016°15'0 0.0
2017-Apr-15 00:01N 28°28' W 016°15'0 0.0
2017-Apr-14 23:30N 28°28' W 016°15'0 0.0
2017-Apr-14 23:01N 28°28' W 016°15'0 0.0
2017-Apr-14 22:30N 28°28' W 016°15'0 0.0
2017-Apr-14 22:00N 28°28' W 016°15'0 0.4
2017-Apr-14 21:30N 28°28' W 016°15'1817.0
2017-Apr-14 20:26N 28°22' W 015°55'921.0
2017-Apr-14 20:00N 28°19' W 015°45'1021.0
2017-Apr-14 19:30N 28°15' W 015°34'1020.7
2017-Apr-14 19:00N 28°11' W 015°24'2 3.3
2017-Apr-14 18:30N 28°10' W 015°24'0 0.0
2017-Apr-14 18:00N 28°10' W 015°24'511.0
2017-Apr-14 17:30N 28°08' W 015°18'1020.5
2017-Apr-14 17:00N 28°06' W 015°07'1020.3
2017-Apr-14 16:30N 28°05' W 014°55'1020.2
2017-Apr-14 16:00N 28°03' W 014°44'1020.6
2017-Apr-14 15:30N 28°02' W 014°32'918.4
2017-Apr-14 15:00N 28°03' W 014°22'0 0.0
2017-Apr-14 13:58N 28°03' W 014°22'0 0.0
2017-Apr-14 13:30N 28°03' W 014°22'1 2.6
2017-Apr-14 13:00N 28°02' W 014°23'1019.6
2017-Apr-14 12:30N 28°02' W 014°34'1020.2
2017-Apr-14 12:00N 28°04' W 014°46'1020.1
2017-Apr-14 11:30N 28°05' W 014°57'1019.7
2017-Apr-14 11:00N 28°07' W 015°08'1020.1
2017-Apr-14 10:30N 28°08' W 015°19'4 8.9
2017-Apr-14 10:00N 28°10' W 015°24'0 0.0
2017-Apr-14 09:30N 28°10' W 015°24'3 5.7
2017-Apr-14 09:00N 28°12' W 015°25'1020.1
2017-Apr-14 08:30N 28°16' W 015°36'1020.0
2017-Apr-14 08:00N 28°19' W 015°47'1019.9
2017-Apr-14 07:30N 28°23' W 015°57'1020.4
2017-Apr-14 07:00N 28°27' W 016°08'6 5.6
2017-Apr-14 05:55N 28°28' W 016°15'0 0.0
2017-Apr-14 02:29N 28°28' W 016°15'0 0.0
2017-Apr-14 01:56N 28°28' W 016°15'0 0.0
2017-Apr-14 01:28N 28°28' W 016°15'0 0.0
2017-Apr-14 00:54N 28°28' W 016°15'0 0.0
2017-Apr-13 23:03N 28°28' W 016°15'0 0.1
2017-Apr-13 22:58N 28°28' W 016°15'0 0.0
2017-Apr-13 22:18N 28°28' W 016°15'0 0.0
2017-Apr-13 21:48N 28°28' W 016°15'1 2.1
2017-Apr-13 21:24N 28°29' W 016°14'916.9
2017-Apr-13 20:51N 28°26' W 016°04'721.2
2017-Apr-13 20:30N 28°23' W 015°56'1121.1
2017-Apr-13 20:00N 28°19' W 015°45'1121.2
2017-Apr-13 19:30N 28°15' W 015°34'1020.8
2017-Apr-13 19:00N 28°11' W 015°23'1 2.5
2017-Apr-13 18:30N 28°10' W 015°24'0 0.0
2017-Apr-13 18:00N 28°10' W 015°24'4 8.6
2017-Apr-13 17:31N 28°08' W 015°19'1020.5
2017-Apr-13 17:01N 28°06' W 015°08'1020.8
2017-Apr-13 16:31N 28°05' W 014°56'1020.3
2017-Apr-13 16:00N 28°03' W 014°45'1020.5
2017-Apr-13 15:31N 28°02' W 014°33'1019.9
2017-Apr-13 15:00N 28°03' W 014°22'0 0.4
2017-Apr-13 14:30N 28°03' W 014°22'0 0.0
2017-Apr-13 13:30N 28°03' W 014°22'0 0.0
2017-Apr-13 12:56N 28°03' W 014°22'0 0.0
2017-Apr-13 12:30N 28°03' W 014°22'0 0.0
2017-Apr-13 12:00N 28°03' W 014°22'0 0.0
2017-Apr-13 11:25N 28°03' W 014°22'0 0.0
2017-Apr-13 10:50N 28°03' W 014°22'0 0.0
2017-Apr-13 10:29N 28°03' W 014°22'0 0.4
2017-Apr-13 09:59N 28°03' W 014°22'815.5
2017-Apr-13 09:30N 28°02' W 014°30'1019.5
2017-Apr-13 09:00N 28°03' W 014°41'1020.2
2017-Apr-13 08:30N 28°05' W 014°52'1020.2
2017-Apr-13 08:00N 28°07' W 015°04'1020.3
2017-Apr-13 07:31N 28°08' W 015°15'815.8
2017-Apr-13 07:00N 28°10' W 015°24'0 0.2
2017-Apr-13 06:31N 28°10' W 015°24'0 0.0
2017-Apr-13 06:00N 28°10' W 015°24'0 0.0
2017-Apr-13 05:30N 28°10' W 015°24'0 0.0
2017-Apr-13 05:00N 28°10' W 015°24'0 0.0
2017-Apr-13 04:30N 28°10' W 015°24'0 0.0
2017-Apr-13 04:01N 28°10' W 015°24'0 0.0
2017-Apr-13 03:30N 28°10' W 015°24'0 0.0
2017-Apr-13 03:00N 28°10' W 015°24'0 0.0
2017-Apr-13 02:30N 28°10' W 015°24'0 0.0
2017-Apr-13 02:00N 28°10' W 015°24'0 0.0
2017-Apr-13 01:31N 28°10' W 015°24'0 0.0
2017-Apr-13 01:00N 28°10' W 015°24'0 0.0
2017-Apr-13 00:30N 28°10' W 015°24'0 0.0
2017-Apr-13 00:00N 28°10' W 015°24'0 0.0
2017-Apr-12 23:30N 28°10' W 015°24'0 0.0
2017-Apr-12 23:00N 28°10' W 015°24'0 0.0
2017-Apr-12 22:30N 28°10' W 015°24'2 4.8
2017-Apr-12 22:00N 28°12' W 015°24'1020.5
2017-Apr-12 21:30N 28°16' W 015°35'  
Track history (hours):
 
Tides and Currents Weather Stations Pressure Air Temp Water Temp Dewpoint Dewpoint Depression Visibility Wind Speed Wind Dir Waves Ship Positions

Volcan De Tamasite

Last reported at 2017-Apr-22 21:05 UTC. Time now 2017-Apr-27 15:01 UTC.
Position N 28°09' W 015°25'.

Length 141 m; draft 5.5 m.

Type: Passenger vessel. MMSI: 224093000.

Date/timePositionNaut miles runAvg speedWind from/ knotsBaromVisibWave heightAir tempDewpointWater temp
2017-Apr-22 21:05N 28°09' W 015°25'0 0.8
2017-Apr-22 20:59N 28°09' W 015°25'1 1.0
2017-Apr-22 20:24N 28°08' W 015°25'0 0.0
2017-Apr-22 19:57N 28°08' W 015°25'0 0.0
2017-Apr-22 19:27N 28°08' W 015°25'0 0.0
2017-Apr-22 18:57N 28°08' W 015°25'0 0.0
2017-Apr-22 18:30N 28°08' W 015°25'0 0.0
2017-Apr-22 18:00N 28°08' W 015°25'0 0.0
2017-Apr-22 17:30N 28°08' W 015°25'0 0.0
2017-Apr-22 17:00N 28°08' W 015°25'0 0.0
2017-Apr-22 16:30N 28°08' W 015°25'0 0.0
2017-Apr-22 16:00N 28°08' W 015°25'0 0.0
2017-Apr-22 15:31N 28°08' W 015°25'0 0.0
2017-Apr-22 15:01N 28°08' W 015°25'0 0.0
2017-Apr-22 14:30N 28°08' W 015°25'0 0.0
2017-Apr-22 13:31N 28°08' W 015°25'0 0.0
2017-Apr-22 13:00N 28°08' W 015°25'0 0.0
2017-Apr-22 12:31N 28°08' W 015°25'0 0.0
2017-Apr-22 12:01N 28°08' W 015°25'0 0.0
2017-Apr-22 11:30N 28°08' W 015°25'0 0.0
2017-Apr-22 11:00N 28°08' W 015°25'0 0.0
2017-Apr-22 10:30N 28°08' W 015°25'0 0.0
2017-Apr-22 10:01N 28°08' W 015°25'0 0.0
2017-Apr-22 09:30N 28°08' W 015°25'0 0.0
2017-Apr-22 09:00N 28°08' W 015°25'0 0.0
2017-Apr-22 08:30N 28°08' W 015°25'0 0.0
2017-Apr-22 08:00N 28°08' W 015°25'0 0.0
2017-Apr-22 07:30N 28°08' W 015°25'0 0.0
2017-Apr-22 07:00N 28°08' W 015°25'0 0.0
2017-Apr-22 06:30N 28°08' W 015°25'0 0.0
2017-Apr-22 06:00N 28°08' W 015°25'0 0.0
2017-Apr-22 05:30N 28°08' W 015°25'0 0.0
2017-Apr-22 05:00N 28°08' W 015°25'0 0.0
2017-Apr-22 04:30N 28°08' W 015°25'0 0.0
2017-Apr-22 04:00N 28°08' W 015°25'0 0.0
2017-Apr-22 03:30N 28°08' W 015°25'0 0.0
2017-Apr-22 03:00N 28°08' W 015°25'0 0.0
2017-Apr-22 02:30N 28°08' W 015°25'0 0.4
2017-Apr-22 02:00N 28°08' W 015°25'1 1.3
2017-Apr-22 01:31N 28°09' W 015°25'1 2.5
2017-Apr-22 01:01N 28°08' W 015°25'2 3.7
2017-Apr-22 00:31N 28°10' W 015°24'0 0.2
2017-Apr-22 00:01N 28°10' W 015°24'0 0.0
2017-Apr-21 23:30N 28°10' W 015°24'0 0.0
2017-Apr-21 23:00N 28°10' W 015°24'0 0.0
2017-Apr-21 22:30N 28°10' W 015°24'0 0.0
2017-Apr-21 22:00N 28°10' W 015°24'0 0.0
2017-Apr-21 21:31N 28°10' W 015°24'0 0.0
2017-Apr-21 21:00N 28°10' W 015°24'0 0.0
2017-Apr-21 20:30N 28°10' W 015°24'1 1.5
2017-Apr-21 20:01N 28°09' W 015°23'0 0.8
2017-Apr-21 19:30N 28°09' W 015°24'0 0.7
2017-Apr-21 19:00N 28°10' W 015°24'0 0.0
2017-Apr-21 18:30N 28°10' W 015°24'0 0.1
2017-Apr-21 18:00N 28°10' W 015°24'713.3
2017-Apr-21 17:30N 28°08' W 015°17'1020.2
2017-Apr-21 17:00N 28°06' W 015°05'1020.1
2017-Apr-21 16:30N 28°05' W 014°54'1020.4
2017-Apr-21 16:00N 28°03' W 014°43'1020.2
2017-Apr-21 15:30N 28°02' W 014°31'917.0
2017-Apr-21 15:00N 28°03' W 014°22'0 0.0
2017-Apr-21 14:30N 28°03' W 014°22'0 0.0
2017-Apr-21 13:06N 28°03' W 014°22'0 0.3
2017-Apr-21 12:55N 28°03' W 014°22'814.8
2017-Apr-21 12:23N 28°02' W 014°31'820.3
2017-Apr-21 12:00N 28°03' W 014°39'1020.0
2017-Apr-21 11:31N 28°04' W 014°50'1020.0
2017-Apr-21 11:00N 28°06' W 015°02'1020.0
2017-Apr-21 10:31N 28°07' W 015°13'1019.7
2017-Apr-21 10:00N 28°09' W 015°24'1 1.2
2017-Apr-21 09:30N 28°10' W 015°24'2 3.2
2017-Apr-21 09:00N 28°11' W 015°23'1020.4
2017-Apr-21 08:30N 28°15' W 015°34'1020.4
2017-Apr-21 08:00N 28°19' W 015°45'1020.4
2017-Apr-21 07:30N 28°23' W 015°56'1020.2
2017-Apr-21 07:00N 28°27' W 016°06'814.5
2017-Apr-21 06:29N 28°28' W 016°15'0 0.0
2017-Apr-21 05:59N 28°28' W 016°15'0 0.0
2017-Apr-21 02:25N 28°28' W 016°15'0 0.0
2017-Apr-21 00:36N 28°28' W 016°15'0 0.0
2017-Apr-21 00:30N 28°28' W 016°15'0 0.0
2017-Apr-20 22:28N 28°28' W 016°15'2 3.6
2017-Apr-20 21:59N 28°28' W 016°13'919.8
2017-Apr-20 21:30N 28°25' W 016°03'1020.0
2017-Apr-20 21:00N 28°21' W 015°52'1020.0
2017-Apr-20 20:30N 28°18' W 015°42'1020.1
2017-Apr-20 20:00N 28°14' W 015°31'816.3
2017-Apr-20 19:30N 28°09' W 015°24'1 1.3
2017-Apr-20 19:00N 28°10' W 015°24'0 0.0
2017-Apr-20 18:30N 28°10' W 015°24'0 0.0
2017-Apr-20 18:00N 28°10' W 015°24'3 6.8
2017-Apr-20 17:30N 28°12' W 015°26'1020.5
2017-Apr-20 17:00N 28°16' W 015°37'1020.1
2017-Apr-20 16:30N 28°20' W 015°47'1019.9
2017-Apr-20 16:00N 28°24' W 015°58'1019.9
2017-Apr-20 15:29N 28°27' W 016°09'5 3.1
2017-Apr-20 13:50N 28°28' W 016°15'4 8.7
2017-Apr-20 13:26N 28°28' W 016°11'1520.9
2017-Apr-20 12:42N 28°22' W 015°55'520.7
2017-Apr-20 12:28N 28°20' W 015°50'919.4
2017-Apr-20 12:00N 28°17' W 015°40'1020.0
2017-Apr-20 11:30N 28°13' W 015°29'612.4
2017-Apr-20 11:00N 28°09' W 015°24'0 0.4
2017-Apr-20 10:31N 28°10' W 015°24'0 0.0
2017-Apr-20 10:01N 28°10' W 015°24'0 0.0
2017-Apr-20 09:30N 28°10' W 015°24'2 3.8
2017-Apr-20 09:00N 28°11' W 015°24'1020.6
2017-Apr-20 08:30N 28°16' W 015°34'1019.9
2017-Apr-20 08:00N 28°19' W 015°45'1020.0
2017-Apr-20 07:30N 28°23' W 015°56'1019.9
2017-Apr-20 07:00N 28°26' W 016°06'815.5
2017-Apr-20 06:30N 28°28' W 016°15'0 0.1
2017-Apr-20 05:52N 28°28' W 016°15'0 0.0
2017-Apr-20 05:30N 28°28' W 016°15'0 0.0
2017-Apr-20 04:58N 28°28' W 016°15'0 0.0
2017-Apr-20 04:20N 28°28' W 016°15'0 0.0
2017-Apr-20 03:56N 28°28' W 016°15'0 0.0
2017-Apr-20 03:28N 28°28' W 016°15'0 0.0
2017-Apr-20 02:57N 28°28' W 016°15'0 0.0
2017-Apr-20 02:29N 28°28' W 016°15'0 0.0
2017-Apr-20 01:59N 28°28' W 016°15'0 0.0
2017-Apr-20 01:28N 28°28' W 016°15'0 0.0
2017-Apr-20 00:55N 28°28' W 016°15'0 0.0
2017-Apr-20 00:22N 28°28' W 016°15'0 0.0
2017-Apr-20 00:00N 28°28' W 016°15'0 0.0
2017-Apr-19 23:27N 28°28' W 016°15'0 0.0
2017-Apr-19 23:00N 28°28' W 016°15'0 0.0
2017-Apr-19 22:21N 28°28' W 016°15'2 3.9
2017-Apr-19 21:48N 28°28' W 016°12'619.9
2017-Apr-19 21:30N 28°26' W 016°06'1119.2
2017-Apr-19 20:55N 28°22' W 015°54'819.7
2017-Apr-19 20:30N 28°19' W 015°45'1019.8
2017-Apr-19 20:00N 28°15' W 015°35'1019.5
2017-Apr-19 19:30N 28°12' W 015°25'2 4.6
2017-Apr-19 19:00N 28°10' W 015°24'0 0.0
2017-Apr-19 18:30N 28°10' W 015°24'0 0.0
2017-Apr-19 18:00N 28°10' W 015°24'713.5
2017-Apr-19 17:30N 28°08' W 015°17'1020.3
2017-Apr-19 17:00N 28°06' W 015°05'1020.3
2017-Apr-19 16:30N 28°05' W 014°54'1020.0
2017-Apr-19 16:00N 28°03' W 014°43'1020.1
2017-Apr-19 15:30N 28°02' W 014°31'916.7
2017-Apr-19 14:59N 28°03' W 014°22'0 0.0
2017-Apr-19 14:30N 28°03' W 014°22'0 0.0
2017-Apr-19 13:22N 28°03' W 014°22'0 0.0
2017-Apr-19 13:00N 28°03' W 014°22'0 0.0
2017-Apr-19 12:28N 28°03' W 014°22'0 0.0
2017-Apr-19 11:59N 28°03' W 014°22'0 0.0
2017-Apr-19 11:30N 28°03' W 014°22'0 0.0
2017-Apr-19 11:00N 28°03' W 014°22'0 0.0
2017-Apr-19 10:29N 28°03' W 014°22'8 8.7
2017-Apr-19 09:34N 28°02' W 014°31'120.4
2017-Apr-19 09:30N 28°02' W 014°32'1020.5
2017-Apr-19 09:01N 28°03' W 014°44'1020.2
2017-Apr-19 08:31N 28°04' W 014°55'1020.2
2017-Apr-19 08:00N 28°06' W 015°06'1020.3
2017-Apr-19 07:30N 28°07' W 015°18'613.0
2017-Apr-19 07:00N 28°08' W 015°25'0 0.0
2017-Apr-19 06:30N 28°08' W 015°25'0 0.0
2017-Apr-19 06:00N 28°08' W 015°25'0 0.0
2017-Apr-19 05:30N 28°08' W 015°25'0 0.0
2017-Apr-19 05:00N 28°08' W 015°25'0 0.0
2017-Apr-19 04:30N 28°08' W 015°25'0 0.0
2017-Apr-19 04:00N 28°08' W 015°25'0 0.0
2017-Apr-19 03:30N 28°08' W 015°25'0 0.0
2017-Apr-19 03:01N 28°08' W 015°25'0 0.0
2017-Apr-19 02:30N 28°08' W 015°25'0 0.0
2017-Apr-19 02:00N 28°08' W 015°25'0 0.0
2017-Apr-19 01:30N 28°08' W 015°25'0 0.0
2017-Apr-19 01:00N 28°08' W 015°25'0 0.0
2017-Apr-19 00:31N 28°08' W 015°25'0 0.0
2017-Apr-19 00:01N 28°08' W 015°25'0 0.0
2017-Apr-18 23:31N 28°08' W 015°25'0 0.0
2017-Apr-18 23:00N 28°08' W 015°25'0 0.0
2017-Apr-18 22:31N 28°08' W 015°25'0 0.0
2017-Apr-18 22:00N 28°08' W 015°25'0 0.0
2017-Apr-18 21:31N 28°08' W 015°25'0 0.0
2017-Apr-18 21:01N 28°08' W 015°25'0 0.0
2017-Apr-18 20:30N 28°08' W 015°25'0 0.0
2017-Apr-18 20:00N 28°08' W 015°25'0 0.0
2017-Apr-18 19:30N 28°08' W 015°25'0 0.0
2017-Apr-18 19:00N 28°08' W 015°25'0 0.0
2017-Apr-18 18:30N 28°08' W 015°25'1 2.4
2017-Apr-18 18:00N 28°07' W 015°24'1019.1
2017-Apr-18 17:30N 28°06' W 015°14'1020.5
2017-Apr-18 17:00N 28°05' W 015°02'918.4
2017-Apr-18 16:30N 28°04' W 014°52'917.8
2017-Apr-18 16:00N 28°03' W 014°42'1019.4
2017-Apr-18 15:30N 28°02' W 014°31'816.1
2017-Apr-18 15:00N 28°03' W 014°22'0 0.0
2017-Apr-18 14:30N 28°03' W 014°22'0 0.0
2017-Apr-18 13:30N 28°03' W 014°22'0 0.0
2017-Apr-18 13:00N 28°03' W 014°22'0 0.0
2017-Apr-18 12:30N 28°03' W 014°22'0 0.0
2017-Apr-18 12:00N 28°03' W 014°22'0 0.0
2017-Apr-18 11:30N 28°03' W 014°22'0 0.0
2017-Apr-18 11:00N 28°03' W 014°22'0 0.0
2017-Apr-18 10:30N 28°03' W 014°22'1 2.9
2017-Apr-18 10:00N 28°02' W 014°23'1020.8
2017-Apr-18 09:30N 28°02' W 014°35'1020.5
2017-Apr-18 09:01N 28°03' W 014°47'1020.3
2017-Apr-18 08:30N 28°04' W 014°58'1020.2
2017-Apr-18 08:00N 28°05' W 015°09'1020.6
2017-Apr-18 07:31N 28°06' W 015°21'4 8.3
2017-Apr-18 07:00N 28°08' W 015°25'0 0.0
2017-Apr-18 06:30N 28°08' W 015°25'0 0.0
2017-Apr-18 06:00N 28°08' W 015°25'0 0.0
2017-Apr-18 05:30N 28°08' W 015°25'0 0.0
2017-Apr-18 05:00N 28°08' W 015°25'0 0.0
2017-Apr-18 04:30N 28°08' W 015°25'0 0.0
2017-Apr-18 04:00N 28°08' W 015°25'0 0.0
2017-Apr-18 03:30N 28°08' W 015°25'0 0.0
2017-Apr-18 03:00N 28°08' W 015°25'0 0.0
2017-Apr-18 02:30N 28°08' W 015°25'0 0.0
2017-Apr-18 02:00N 28°08' W 015°25'0 0.0
2017-Apr-18 01:30N 28°08' W 015°25'0 0.0
2017-Apr-18 01:00N 28°08' W 015°25'0 0.0
2017-Apr-18 00:30N 28°08' W 015°25'0 0.0
2017-Apr-18 00:00N 28°08' W 015°25'0 0.0
2017-Apr-17 23:30N 28°08' W 015°25'0 0.0
2017-Apr-17 23:00N 28°08' W 015°25'0 0.0
2017-Apr-17 22:30N 28°08' W 015°25'0 0.0
2017-Apr-17 22:00N 28°08' W 015°25'0 0.0
2017-Apr-17 21:30N 28°08' W 015°25'0 0.0
2017-Apr-17 21:00N 28°08' W 015°25'0 0.0
2017-Apr-17 20:30N 28°08' W 015°25'0 0.0
2017-Apr-17 20:00N 28°08' W 015°25'0 0.0
2017-Apr-17 19:30N 28°08' W 015°25'0 0.0
2017-Apr-17 19:00N 28°08' W 015°25'0 0.0
2017-Apr-17 18:30N 28°08' W 015°25'2 3.6
2017-Apr-17 18:00N 28°07' W 015°24'1019.8
2017-Apr-17 17:30N 28°06' W 015°12'1019.6
2017-Apr-17 17:00N 28°05' W 015°01'1020.1
2017-Apr-17 16:31N 28°04' W 014°50'1020.1
2017-Apr-17 16:01N 28°03' W 014°39'1020.4
2017-Apr-17 15:31N 28°02' W 014°27'5 9.5
2017-Apr-17 15:00N 28°03' W 014°22'0 0.0
2017-Apr-17 14:30N 28°03' W 014°22'0 0.0
2017-Apr-17 13:30N 28°03' W 014°22'0 0.0
2017-Apr-17 13:00N 28°03' W 014°22'0 0.0
2017-Apr-17 12:30N 28°03' W 014°22'0 0.0
2017-Apr-17 12:00N 28°03' W 014°22'0 0.0
2017-Apr-17 10:57N 28°03' W 014°22'0 0.0
2017-Apr-17 10:30N 28°03' W 014°22'0 0.3
2017-Apr-17 09:59N 28°03' W 014°22'918.7
2017-Apr-17 09:30N 28°02' W 014°32'1020.7
2017-Apr-17 09:00N 28°03' W 014°44'1020.2
2017-Apr-17 08:30N 28°04' W 014°55'1020.3
2017-Apr-17 08:00N 28°05' W 015°07'1020.5
2017-Apr-17 07:30N 28°06' W 015°18'612.6
2017-Apr-17 07:00N 28°08' W 015°25'0 0.0
2017-Apr-17 06:30N 28°08' W 015°25'0 0.0
2017-Apr-17 06:01N 28°08' W 015°25'0 0.0
2017-Apr-17 05:30N 28°08' W 015°25'0 0.0
2017-Apr-17 05:00N 28°08' W 015°25'0 0.0
2017-Apr-17 04:30N 28°08' W 015°25'0 0.0
2017-Apr-17 04:00N 28°08' W 015°25'0 0.0
2017-Apr-17 03:30N 28°08' W 015°25'0 0.0
2017-Apr-17 03:00N 28°08' W 015°25'0 0.0
2017-Apr-17 02:30N 28°08' W 015°25'0 0.0
2017-Apr-17 02:00N 28°08' W 015°25'0 0.0
2017-Apr-17 01:30N 28°08' W 015°25'0 0.0
2017-Apr-17 01:00N 28°08' W 015°25'0 0.0
2017-Apr-17 00:30N 28°08' W 015°25'0 0.0
2017-Apr-17 00:00N 28°08' W 015°25'0 0.0
2017-Apr-16 23:30N 28°08' W 015°25'0 0.0
2017-Apr-16 23:00N 28°08' W 015°25'0 0.0
2017-Apr-16 22:30N 28°08' W 015°25'0 0.0
2017-Apr-16 22:00N 28°08' W 015°25'0 0.3
2017-Apr-16 21:30N 28°08' W 015°25'611.8
2017-Apr-16 21:01N 28°06' W 015°19'1020.3
2017-Apr-16 20:30N 28°05' W 015°07'1019.6
2017-Apr-16 20:00N 28°04' W 014°56'1019.7
2017-Apr-16 19:30N 28°03' W 014°45'1019.9
2017-Apr-16 19:00N 28°02' W 014°34'1020.1
2017-Apr-16 18:30N 28°03' W 014°22'1 1.1
2017-Apr-16 18:00N 28°03' W 014°22'0 0.0
2017-Apr-16 17:30N 28°03' W 014°22'1 1.8
2017-Apr-16 17:00N 28°02' W 014°23'1020.5
2017-Apr-16 16:30N 28°02' W 014°34'1020.5
2017-Apr-16 16:00N 28°03' W 014°46'1020.3
2017-Apr-16 15:30N 28°04' W 014°57'1020.3
2017-Apr-16 15:00N 28°05' W 015°09'1514.6
2017-Apr-16 14:00N 28°08' W 015°25'0 0.0
2017-Apr-16 13:30N 28°08' W 015°25'1 2.1
2017-Apr-16 13:01N 28°07' W 015°24'1019.2
2017-Apr-16 12:30N 28°06' W 015°14'1020.3
2017-Apr-16 12:00N 28°05' W 015°02'1020.8
2017-Apr-16 11:30N 28°04' W 014°50'1020.5
2017-Apr-16 11:00N 28°03' W 014°39'1020.1
2017-Apr-16 10:30N 28°02' W 014°27'5 9.9
2017-Apr-16 10:00N 28°03' W 014°22'0 0.0
2017-Apr-16 09:30N 28°03' W 014°22'0 0.0
2017-Apr-16 09:00N 28°03' W 014°22'0 0.4
2017-Apr-16 08:30N 28°03' W 014°22'917.5
2017-Apr-16 08:00N 28°02' W 014°32'1020.8
2017-Apr-16 07:30N 28°03' W 014°44'1020.7
2017-Apr-16 07:00N 28°04' W 014°55'1020.3
2017-Apr-16 06:30N 28°05' W 015°07'1020.5
2017-Apr-16 06:00N 28°06' W 015°18'612.3
2017-Apr-16 05:30N 28°08' W 015°25'0 0.0
2017-Apr-16 05:00N 28°08' W 015°25'0 0.0
2017-Apr-16 04:30N 28°08' W 015°25'0 0.0
2017-Apr-16 04:00N 28°08' W 015°25'0 0.0
2017-Apr-16 03:30N 28°08' W 015°25'0 0.0
2017-Apr-16 03:00N 28°08' W 015°25'0 0.0
2017-Apr-16 02:30N 28°08' W 015°25'0 0.0
2017-Apr-16 02:00N 28°08' W 015°25'0 0.0
2017-Apr-16 01:30N 28°08' W 015°25'0 0.0
2017-Apr-16 01:00N 28°08' W 015°25'0 0.0
2017-Apr-16 00:30N 28°08' W 015°25'0 0.0
2017-Apr-16 00:00N 28°08' W 015°25'0 0.0
2017-Apr-15 23:30N 28°08' W 015°25'0 0.0
2017-Apr-15 23:00N 28°08' W 015°25'0 0.0
2017-Apr-15 22:30N 28°08' W 015°25'0 0.0
2017-Apr-15 22:00N 28°08' W 015°25'0 0.0
2017-Apr-15 21:30N 28°08' W 015°25'0 0.0
2017-Apr-15 21:00N 28°08' W 015°25'0 0.0
2017-Apr-15 20:30N 28°08' W 015°25'0 0.0
2017-Apr-15 20:00N 28°08' W 015°25'0 0.0
2017-Apr-15 19:30N 28°08' W 015°25'0 0.0
2017-Apr-15 19:00N 28°08' W 015°25'0 0.0
2017-Apr-15 18:30N 28°08' W 015°25'0 0.4
2017-Apr-15 18:00N 28°08' W 015°25'612.9
2017-Apr-15 17:30N 28°06' W 015°18'1020.1
2017-Apr-15 17:00N 28°06' W 015°06'1020.5
2017-Apr-15 16:30N 28°05' W 014°55'1020.3
2017-Apr-15 16:00N 28°03' W 014°43'1020.7
2017-Apr-15 15:30N 28°02' W 014°32'917.7
2017-Apr-15 15:00N 28°03' W 014°22'0 0.0
2017-Apr-15 14:31N 28°03' W 014°22'0 0.0
2017-Apr-15 13:31N 28°03' W 014°22'0 0.0
2017-Apr-15 13:01N 28°03' W 014°22'611.7
2017-Apr-15 12:29N 28°02' W 014°29'919.6
2017-Apr-15 12:00N 28°03' W 014°39'1020.1
2017-Apr-15 11:30N 28°04' W 014°50'1020.2
2017-Apr-15 11:00N 28°06' W 015°02'1020.2
2017-Apr-15 10:30N 28°07' W 015°13'1019.6
2017-Apr-15 10:00N 28°09' W 015°24'1 1.1
2017-Apr-15 09:30N 28°10' W 015°24'3 6.9
2017-Apr-15 09:00N 28°12' W 015°26'1019.7
2017-Apr-15 08:30N 28°16' W 015°36'1019.9
2017-Apr-15 08:00N 28°20' W 015°47'1019.7
2017-Apr-15 07:30N 28°23' W 015°57'1020.2
2017-Apr-15 07:00N 28°27' W 016°08'611.8
2017-Apr-15 06:30N 28°28' W 016°15'0 0.0
2017-Apr-15 06:00N 28°28' W 016°15'0 0.0
2017-Apr-15 05:30N 28°28' W 016°15'0 0.0
2017-Apr-15 05:00N 28°28' W 016°15'0 0.0
2017-Apr-15 04:30N 28°28' W 016°15'0 0.0
2017-Apr-15 04:00N 28°28' W 016°15'0 0.0
2017-Apr-15 03:24N 28°28' W 016°15'0 0.0
2017-Apr-15 03:00N 28°28' W 016°15'0 0.0
2017-Apr-15 02:28N 28°28' W 016°15'0 0.0
2017-Apr-15 02:00N 28°28' W 016°15'0 0.0
2017-Apr-15 01:31N 28°28' W 016°15'0 0.0
2017-Apr-15 01:00N 28°28' W 016°15'0 0.0
2017-Apr-15 00:30N 28°28' W 016°15'0 0.0
2017-Apr-15 00:01N 28°28' W 016°15'0 0.0
2017-Apr-14 23:30N 28°28' W 016°15'0 0.0
2017-Apr-14 23:01N 28°28' W 016°15'0 0.0
2017-Apr-14 22:30N 28°28' W 016°15'0 0.0
2017-Apr-14 22:00N 28°28' W 016°15'0 0.4
2017-Apr-14 21:30N 28°28' W 016°15'1817.0
2017-Apr-14 20:26N 28°22' W 015°55'921.0
2017-Apr-14 20:00N 28°19' W 015°45'1021.0
2017-Apr-14 19:30N 28°15' W 015°34'1020.7
2017-Apr-14 19:00N 28°11' W 015°24'2 3.3
2017-Apr-14 18:30N 28°10' W 015°24'0 0.0
2017-Apr-14 18:00N 28°10' W 015°24'511.0
2017-Apr-14 17:30N 28°08' W 015°18'1020.5
2017-Apr-14 17:00N 28°06' W 015°07'1020.3
2017-Apr-14 16:30N 28°05' W 014°55'1020.2
2017-Apr-14 16:00N 28°03' W 014°44'1020.6
2017-Apr-14 15:30N 28°02' W 014°32'918.4
2017-Apr-14 15:00N 28°03' W 014°22'0 0.0
2017-Apr-14 13:58N 28°03' W 014°22'0 0.0
2017-Apr-14 13:30N 28°03' W 014°22'1 2.6
2017-Apr-14 13:00N 28°02' W 014°23'1019.6
2017-Apr-14 12:30N 28°02' W 014°34'1020.2
2017-Apr-14 12:00N 28°04' W 014°46'1020.1
2017-Apr-14 11:30N 28°05' W 014°57'1019.7
2017-Apr-14 11:00N 28°07' W 015°08'1020.1
2017-Apr-14 10:30N 28°08' W 015°19'4 8.9
2017-Apr-14 10:00N 28°10' W 015°24'0 0.0
2017-Apr-14 09:30N 28°10' W 015°24'3 5.7
2017-Apr-14 09:00N 28°12' W 015°25'1020.1
2017-Apr-14 08:30N 28°16' W 015°36'1020.0
2017-Apr-14 08:00N 28°19' W 015°47'1019.9
2017-Apr-14 07:30N 28°23' W 015°57'1020.4
2017-Apr-14 07:00N 28°27' W 016°08'6 5.6
2017-Apr-14 05:55N 28°28' W 016°15'0 0.0
2017-Apr-14 02:29N 28°28' W 016°15'0 0.0
2017-Apr-14 01:56N 28°28' W 016°15'0 0.0
2017-Apr-14 01:28N 28°28' W 016°15'0 0.0
2017-Apr-14 00:54N 28°28' W 016°15'0 0.0
2017-Apr-13 23:03N 28°28' W 016°15'0 0.1
2017-Apr-13 22:58N 28°28' W 016°15'0 0.0
2017-Apr-13 22:18N 28°28' W 016°15'0 0.0
2017-Apr-13 21:48N 28°28' W 016°15'1 2.1
2017-Apr-13 21:24N 28°29' W 016°14'916.9
2017-Apr-13 20:51N 28°26' W 016°04'721.2
2017-Apr-13 20:30N 28°23' W 015°56'1121.1
2017-Apr-13 20:00N 28°19' W 015°45'1121.2
2017-Apr-13 19:30N 28°15' W 015°34'1020.8
2017-Apr-13 19:00N 28°11' W 015°23'1 2.5
2017-Apr-13 18:30N 28°10' W 015°24'0 0.0
2017-Apr-13 18:00N 28°10' W 015°24'4 8.6
2017-Apr-13 17:31N 28°08' W 015°19'1020.5
2017-Apr-13 17:01N 28°06' W 015°08'1020.8
2017-Apr-13 16:31N 28°05' W 014°56'1020.3
2017-Apr-13 16:00N 28°03' W 014°45'1020.5
2017-Apr-13 15:31N 28°02' W 014°33'1019.9
2017-Apr-13 15:00N 28°03' W 014°22'0 0.4
2017-Apr-13 14:30N 28°03' W 014°22'0 0.0
2017-Apr-13 13:30N 28°03' W 014°22'0 0.0
2017-Apr-13 12:56N 28°03' W 014°22'0 0.0
2017-Apr-13 12:30N 28°03' W 014°22'0 0.0
2017-Apr-13 12:00N 28°03' W 014°22'0 0.0
2017-Apr-13 11:25N 28°03' W 014°22'0 0.0
2017-Apr-13 10:50N 28°03' W 014°22'0 0.0
2017-Apr-13 10:29N 28°03' W 014°22'0 0.4
2017-Apr-13 09:59N 28°03' W 014°22'815.5
2017-Apr-13 09:30N 28°02' W 014°30'1019.5
2017-Apr-13 09:00N 28°03' W 014°41'1020.2
2017-Apr-13 08:30N 28°05' W 014°52'1020.2
2017-Apr-13 08:00N 28°07' W 015°04'1020.3
2017-Apr-13 07:31N 28°08' W 015°15'815.8
2017-Apr-13 07:00N 28°10' W 015°24'0 0.2
2017-Apr-13 06:31N 28°10' W 015°24'0 0.0
2017-Apr-13 06:00N 28°10' W 015°24'0 0.0
2017-Apr-13 05:30N 28°10' W 015°24'0 0.0
2017-Apr-13 05:00N 28°10' W 015°24'0 0.0
2017-Apr-13 04:30N 28°10' W 015°24'0 0.0
2017-Apr-13 04:01N 28°10' W 015°24'0 0.0
2017-Apr-13 03:30N 28°10' W 015°24'0 0.0
2017-Apr-13 03:00N 28°10' W 015°24'0 0.0
2017-Apr-13 02:30N 28°10' W 015°24'0 0.0
2017-Apr-13 02:00N 28°10' W 015°24'0 0.0
2017-Apr-13 01:31N 28°10' W 015°24'0 0.0
2017-Apr-13 01:00N 28°10' W 015°24'0 0.0
2017-Apr-13 00:30N 28°10' W 015°24'0 0.0
2017-Apr-13 00:00N 28°10' W 015°24'0 0.0
2017-Apr-12 23:30N 28°10' W 015°24'0 0.0
2017-Apr-12 23:00N 28°10' W 015°24'0 0.0
2017-Apr-12 22:30N 28°10' W 015°24'2 4.8
2017-Apr-12 22:00N 28°12' W 015°24'1020.5
2017-Apr-12 21:30N 28°16' W 015°35'  

Dump ship's entire track history